Wetterdaten: Sonntag, 20.09.2015
Datum Zeit Auen-Temp. Temp gefhlt Luftfeuchte Luftdruck Regen Wind Richtung Richtung Taupunkt Windben
20.09.2015 00:00 10,0 C 9,9 C 89 % 1023,0 hPa 0,0 mm 0,0 km/h (0 Bft) W 270 8,3 C 0,0 km/h (0 Bft)
20.09.2015 00:05 10,1 C 10,0 C 89 % 1023,0 hPa 0,0 mm 0,0 km/h (0 Bft) S 180 8,4 C 0,0 km/h (0 Bft)
20.09.2015 00:10 10,1 C 10,0 C 89 % 1023,0 hPa 0,0 mm 0,0 km/h (0 Bft) S 180 8,4 C 0,0 km/h (0 Bft)
20.09.2015 00:15 10,1 C 10,0 C 89 % 1023,1 hPa 0,0 mm 0,0 km/h (0 Bft) S 180 8,4 C 0,0 km/h (0 Bft)
20.09.2015 00:20 10,1 C 10,0 C 89 % 1023,1 hPa 0,0 mm 0,0 km/h (0 Bft) SW 225 8,4 C 0,0 km/h (0 Bft)
20.09.2015 00:25 10,0 C 9,9 C 89 % 1023,1 hPa 0,0 mm 0,0 km/h (0 Bft) S 180 8,3 C 0,0 km/h (0 Bft)
20.09.2015 00:30 10,0 C 9,9 C 89 % 1023,1 hPa 0,0 mm 0,0 km/h (0 Bft) S 180 8,3 C 0,0 km/h (0 Bft)
20.09.2015 00:35 9,9 C 9,8 C 90 % 1023,0 hPa 0,0 mm 0,0 km/h (0 Bft) S 180 8,3 C 0,0 km/h (0 Bft)
20.09.2015 00:40 9,9 C 9,8 C 90 % 1023,0 hPa 0,0 mm 0,3 km/h (0 Bft) S 180 8,3 C 3,6 km/h (1 Bft)
20.09.2015 00:45 9,9 C 9,8 C 89 % 1023,0 hPa 0,0 mm 1,0 km/h (0 Bft) SW 225 8,2 C 3,4 km/h (1 Bft)
20.09.2015 00:50 9,9 C 9,8 C 90 % 1023,0 hPa 0,0 mm 1,8 km/h (1 Bft) S 180 8,3 C 6,7 km/h (2 Bft)
20.09.2015 00:55 9,9 C 9,8 C 89 % 1023,1 hPa 0,0 mm 1,0 km/h (0 Bft) W 270 8,2 C 0,0 km/h (0 Bft)
20.09.2015 01:00 10,0 C 9,9 C 89 % 1023,1 hPa 0,0 mm 0,3 km/h (0 Bft) W-SW 247 8,3 C 0,0 km/h (0 Bft)
20.09.2015 01:05 10,0 C 9,9 C 89 % 1023,1 hPa 0,0 mm 0,3 km/h (0 Bft) NW 315 8,3 C 0,0 km/h (0 Bft)
20.09.2015 01:10 10,0 C 9,9 C 89 % 1023,1 hPa 0,0 mm 0,5 km/h (0 Bft) S-SO 157 8,3 C 0,0 km/h (0 Bft)
20.09.2015 01:15 10,0 C 9,9 C 89 % 1022,9 hPa 0,0 mm 0,3 km/h (0 Bft) S 180 8,3 C 0,0 km/h (0 Bft)
20.09.2015 01:20 9,9 C 9,8 C 89 % 1022,9 hPa 0,0 mm 0,3 km/h (0 Bft) S 180 8,2 C 0,0 km/h (0 Bft)
20.09.2015 01:21 9,9 C 9,8 C 89 % 1022,9 hPa 0,0 mm 0,3 km/h (0 Bft) S 180 8,2 C 0,0 km/h (0 Bft)
20.09.2015 01:25 9,9 C 9,8 C 89 % 1022,9 hPa 0,0 mm 0,3 km/h (0 Bft) S 180 8,2 C 0,0 km/h (0 Bft)
20.09.2015 01:30 9,9 C 9,8 C 89 % 1022,9 hPa 0,0 mm 0,0 km/h (0 Bft) S 180 8,2 C 0,0 km/h (0 Bft)
20.09.2015 01:35 9,8 C 9,7 C 89 % 1022,8 hPa 0,0 mm 0,0 km/h (0 Bft) SW 225 8,1 C 0,0 km/h (0 Bft)
20.09.2015 01:40 9,8 C 9,7 C 89 % 1022,8 hPa 0,0 mm 0,0 km/h (0 Bft) S 180 8,1 C 0,0 km/h (0 Bft)
20.09.2015 01:45 9,8 C 9,8 C 87 % 1022,8 hPa 0,0 mm 0,0 km/h (0 Bft) S 180 7,7 C 0,0 km/h (0 Bft)
20.09.2015 01:50 9,9 C 9,8 C 90 % 1022,8 hPa 0,0 mm 0,3 km/h (0 Bft) W-SW 247 8,3 C 0,0 km/h (0 Bft)
20.09.2015 01:55 9,9 C 9,8 C 90 % 1022,7 hPa 0,0 mm 0,3 km/h (0 Bft) NW 315 8,3 C 0,0 km/h (0 Bft)
20.09.2015 02:00 9,9 C 9,8 C 90 % 1022,7 hPa 0,0 mm 0,0 km/h (0 Bft) SW 225 8,3 C 0,0 km/h (0 Bft)
20.09.2015 02:05 9,9 C 9,8 C 90 % 1022,7 hPa 0,0 mm 0,0 km/h (0 Bft) SW 225 8,3 C 0,0 km/h (0 Bft)
20.09.2015 02:10 9,9 C 9,9 C 87 % 1022,7 hPa 0,0 mm 0,0 km/h (0 Bft) S 180 7,8 C 0,0 km/h (0 Bft)
20.09.2015 02:15 9,9 C 9,9 C 87 % 1022,8 hPa 0,0 mm 0,0 km/h (0 Bft) W-SW 247 7,8 C 0,0 km/h (0 Bft)
20.09.2015 02:20 9,9 C 9,9 C 87 % 1022,8 hPa 0,0 mm 0,0 km/h (0 Bft) S-SW 202 7,8 C 0,0 km/h (0 Bft)
20.09.2015 02:25 9,9 C 9,9 C 87 % 1022,8 hPa 0,0 mm 0,0 km/h (0 Bft) S 180 7,8 C 0,0 km/h (0 Bft)
20.09.2015 02:30 9,9 C 9,9 C 87 % 1022,8 hPa 0,0 mm 0,0 km/h (0 Bft) S-SO 157 7,8 C 0,0 km/h (0 Bft)
20.09.2015 02:35 9,9 C 9,9 C 87 % 1022,6 hPa 0,0 mm 0,0 km/h (0 Bft) SW 225 7,8 C 0,0 km/h (0 Bft)
20.09.2015 02:40 9,9 C 9,9 C 87 % 1022,6 hPa 0,0 mm 0,0 km/h (0 Bft) S-SO 157 7,8 C 0,0 km/h (0 Bft)
20.09.2015 02:45 9,9 C 9,8 C 90 % 1022,6 hPa 0,0 mm 0,0 km/h (0 Bft) S-SW 202 8,3 C 0,0 km/h (0 Bft)
20.09.2015 02:50 9,9 C 9,9 C 87 % 1022,6 hPa 0,0 mm 0,0 km/h (0 Bft) NW 315 7,8 C 0,0 km/h (0 Bft)
20.09.2015 02:55 9,9 C 9,9 C 87 % 1022,8 hPa 0,0 mm 0,0 km/h (0 Bft) SW 225 7,8 C 0,0 km/h (0 Bft)
20.09.2015 03:00 9,9 C 9,9 C 87 % 1022,8 hPa 0,0 mm 0,0 km/h (0 Bft) SW 225 7,8 C 0,0 km/h (0 Bft)
20.09.2015 03:05 9,9 C 9,8 C 89 % 1022,8 hPa 0,0 mm 0,0 km/h (0 Bft) S-SW 202 8,2 C 0,0 km/h (0 Bft)
20.09.2015 03:10 9,9 C 9,8 C 89 % 1022,8 hPa 0,0 mm 0,0 km/h (0 Bft) S 180 8,2 C 0,0 km/h (0 Bft)
20.09.2015 03:15 9,9 C 9,8 C 87 % 1022,6 hPa 0,0 mm 0,8 km/h (0 Bft) S-SW 202 7,8 C 4,9 km/h (1 Bft)
20.09.2015 03:20 9,9 C 9,8 C 87 % 1022,6 hPa 0,0 mm 1,6 km/h (1 Bft) SW 225 7,8 C 4,4 km/h (1 Bft)
20.09.2015 03:25 10,0 C 9,8 C 89 % 1022,6 hPa 0,0 mm 1,6 km/h (1 Bft) S-SW 202 8,3 C 0,0 km/h (0 Bft)
20.09.2015 03:30 9,9 C 9,8 C 87 % 1022,6 hPa 0,0 mm 1,6 km/h (1 Bft) S 180 7,8 C 7,5 km/h (2 Bft)
20.09.2015 03:35 9,9 C 9,7 C 89 % 1022,4 hPa 0,0 mm 1,8 km/h (1 Bft) W 270 8,2 C 0,0 km/h (0 Bft)
20.09.2015 03:40 10,0 C 9,8 C 89 % 1022,4 hPa 0,0 mm 1,0 km/h (0 Bft) W 270 8,3 C 0,0 km/h (0 Bft)
20.09.2015 03:45 9,9 C 9,7 C 89 % 1022,4 hPa 0,0 mm 0,3 km/h (0 Bft) W 270 8,2 C 0,0 km/h (0 Bft)
20.09.2015 03:50 9,9 C 9,7 C 89 % 1022,4 hPa 0,0 mm 0,0 km/h (0 Bft) W-NW 292 8,2 C 0,0 km/h (0 Bft)
20.09.2015 03:55 9,9 C 9,7 C 89 % 1022,5 hPa 0,0 mm 0,0 km/h (0 Bft) S 180 8,2 C 0,0 km/h (0 Bft)
20.09.2015 04:00 9,9 C 9,7 C 89 % 1022,5 hPa 0,0 mm 0,0 km/h (0 Bft) W-NW 292 8,2 C 0,0 km/h (0 Bft)
20.09.2015 04:05 9,9 C 9,7 C 89 % 1022,5 hPa 0,0 mm 0,0 km/h (0 Bft) S 180 8,2 C 0,0 km/h (0 Bft)
20.09.2015 04:10 9,8 C 9,6 C 89 % 1022,5 hPa 0,0 mm 1,6 km/h (1 Bft) SW 225 8,1 C 2,8 km/h (1 Bft)
20.09.2015 04:15 9,7 C 9,6 C 89 % 1022,4 hPa 0,0 mm 1,8 km/h (1 Bft) S 180 8,0 C 0,0 km/h (0 Bft)
20.09.2015 04:20 9,6 C 9,5 C 89 % 1022,4 hPa 0,0 mm 0,8 km/h (0 Bft) SW 225 7,9 C 0,0 km/h (0 Bft)
20.09.2015 04:25 9,6 C 9,4 C 89 % 1022,4 hPa 0,0 mm 0,5 km/h (0 Bft) W 270 7,9 C 0,0 km/h (0 Bft)
20.09.2015 04:30 9,5 C 9,3 C 89 % 1022,4 hPa 0,0 mm 0,0 km/h (0 Bft) O-NO 67 7,8 C 0,0 km/h (0 Bft)
20.09.2015 04:35 9,4 C 9,3 C 89 % 1022,2 hPa 0,0 mm 0,0 km/h (0 Bft) W-SW 247 7,7 C 0,0 km/h (0 Bft)
20.09.2015 04:40 9,5 C 9,3 C 89 % 1022,2 hPa 0,0 mm 0,0 km/h (0 Bft) S-SW 202 7,8 C 0,0 km/h (0 Bft)
20.09.2015 04:45 9,5 C 9,3 C 89 % 1022,2 hPa 0,0 mm 0,0 km/h (0 Bft) S 180 7,8 C 0,0 km/h (0 Bft)
20.09.2015 04:50 9,5 C 9,3 C 89 % 1022,2 hPa 0,0 mm 0,0 km/h (0 Bft) S 180 7,8 C 0,0 km/h (0 Bft)
20.09.2015 04:55 9,5 C 9,3 C 89 % 1022,3 hPa 0,0 mm 0,0 km/h (0 Bft) S 180 7,8 C 0,0 km/h (0 Bft)
20.09.2015 05:00 9,4 C 9,3 C 89 % 1022,3 hPa 0,0 mm 0,5 km/h (0 Bft) S-SW 202 7,7 C 3,1 km/h (1 Bft)
20.09.2015 05:05 9,4 C 9,2 C 89 % 1022,3 hPa 0,0 mm 1,8 km/h (1 Bft) S 180 7,7 C 4,9 km/h (1 Bft)
20.09.2015 05:10 9,3 C 9,2 C 89 % 1022,3 hPa 0,0 mm 3,1 km/h (1 Bft) S 180 7,6 C 3,6 km/h (1 Bft)
20.09.2015 05:15 9,2 C 9,1 C 89 % 1022,6 hPa 0,0 mm 1,6 km/h (1 Bft) S 180 7,5 C 0,0 km/h (0 Bft)
20.09.2015 05:20 9,3 C 9,2 C 89 % 1022,6 hPa 0,0 mm 0,0 km/h (0 Bft) S 180 7,6 C 0,0 km/h (0 Bft)
20.09.2015 05:25 9,3 C 9,2 C 89 % 1022,6 hPa 0,0 mm 0,0 km/h (0 Bft) S-SO 157 7,6 C 0,0 km/h (0 Bft)
20.09.2015 05:30 9,2 C 9,1 C 89 % 1022,6 hPa 0,0 mm 0,0 km/h (0 Bft) SW 225 7,5 C 0,0 km/h (0 Bft)
20.09.2015 05:35 9,2 C 9,1 C 89 % 1022,2 hPa 0,0 mm 0,0 km/h (0 Bft) S 180 7,5 C 0,0 km/h (0 Bft)
20.09.2015 05:40 9,2 C 9,1 C 89 % 1022,2 hPa 0,0 mm 0,5 km/h (0 Bft) S-SO 157 7,5 C 4,9 km/h (1 Bft)
20.09.2015 05:45 9,3 C 9,2 C 89 % 1022,2 hPa 0,0 mm 1,6 km/h (1 Bft) SW 225 7,6 C 3,4 km/h (1 Bft)
20.09.2015 05:50 9,4 C 9,3 C 89 % 1022,2 hPa 0,0 mm 3,6 km/h (1 Bft) S 180 7,7 C 2,6 km/h (1 Bft)
20.09.2015 05:55 9,3 C 9,2 C 89 % 1022,4 hPa 0,0 mm 3,4 km/h (1 Bft) S 180 7,6 C 3,9 km/h (1 Bft)
20.09.2015 06:00 9,3 C 9,2 C 89 % 1022,4 hPa 0,0 mm 3,1 km/h (1 Bft) S 180 7,6 C 4,9 km/h (1 Bft)
20.09.2015 06:05 9,3 C 9,2 C 89 % 1022,4 hPa 0,0 mm 3,4 km/h (1 Bft) S 180 7,6 C 4,4 km/h (1 Bft)
20.09.2015 06:10 9,3 C 9,2 C 89 % 1022,4 hPa 0,0 mm 4,1 km/h (1 Bft) S 180 7,6 C 6,0 km/h (2 Bft)
20.09.2015 06:15 9,2 C 9,1 C 89 % 1022,3 hPa 0,0 mm 4,4 km/h (1 Bft) S 180 7,5 C 6,0 km/h (2 Bft)
20.09.2015 06:20 9,2 C 9,1 C 89 % 1022,3 hPa 0,0 mm 4,7 km/h (1 Bft) SO 135 7,5 C 9,1 km/h (2 Bft)
20.09.2015 06:25 9,2 C 9,1 C 89 % 1022,3 hPa 0,0 mm 4,7 km/h (1 Bft) W-SW 247 7,5 C 6,0 km/h (2 Bft)
20.09.2015 06:30 9,1 C 9,1 C 89 % 1022,3 hPa 0,0 mm 4,1 km/h (1 Bft) S-SW 202 7,4 C 6,5 km/h (2 Bft)
20.09.2015 06:35 9,1 C 9,0 C 89 % 1022,3 hPa 0,0 mm 3,1 km/h (1 Bft) S 180 7,4 C 3,6 km/h (1 Bft)
20.09.2015 06:40 9,1 C 9,0 C 89 % 1022,3 hPa 0,0 mm 3,4 km/h (1 Bft) S 180 7,4 C 4,1 km/h (1 Bft)
20.09.2015 06:45 9,1 C 9,0 C 89 % 1022,3 hPa 0,0 mm 3,4 km/h (1 Bft) SW 225 7,4 C 4,7 km/h (1 Bft)
20.09.2015 06:50 9,1 C 9,0 C 89 % 1022,3 hPa 0,0 mm 1,8 km/h (1 Bft) S 180 7,4 C 0,0 km/h (0 Bft)
20.09.2015 06:55 9,1 C 9,0 C 89 % 1022,4 hPa 0,0 mm 0,8 km/h (0 Bft) S 180 7,4 C 0,0 km/h (0 Bft)
20.09.2015 07:00 9,2 C 9,1 C 89 % 1022,4 hPa 0,0 mm 0,0 km/h (0 Bft) S 180 7,5 C 0,0 km/h (0 Bft)
20.09.2015 07:05 9,2 C 9,1 C 89 % 1022,4 hPa 0,0 mm 0,0 km/h (0 Bft) S 180 7,5 C 0,0 km/h (0 Bft)
20.09.2015 07:10 9,2 C 9,1 C 90 % 1022,4 hPa 0,0 mm 0,5 km/h (0 Bft) SW 225 7,6 C 2,8 km/h (1 Bft)
20.09.2015 07:15 9,2 C 9,1 C 90 % 1022,6 hPa 0,0 mm 1,0 km/h (0 Bft) N-NO 22 7,6 C 0,0 km/h (0 Bft)
20.09.2015 07:20 9,3 C 9,2 C 90 % 1022,6 hPa 0,0 mm 0,8 km/h (0 Bft) SW 225 7,7 C 0,0 km/h (0 Bft)
20.09.2015 07:22 9,3 C 9,2 C 90 % 1022,6 hPa 0,0 mm 0,0 km/h (0 Bft) S 180 7,7 C 0,0 km/h (0 Bft)
20.09.2015 07:25 9,3 C 9,2 C 90 % 1022,6 hPa 0,0 mm 0,0 km/h (0 Bft) S 180 7,7 C 0,0 km/h (0 Bft)
20.09.2015 07:30 9,3 C 9,2 C 90 % 1022,6 hPa 0,0 mm 0,0 km/h (0 Bft) W-SW 247 7,7 C 0,0 km/h (0 Bft)
20.09.2015 07:35 9,3 C 9,3 C 87 % 1022,7 hPa 0,0 mm 0,0 km/h (0 Bft) NW 315 7,2 C 0,0 km/h (0 Bft)
20.09.2015 07:40 9,4 C 9,3 C 89 % 1022,7 hPa 0,0 mm 0,0 km/h (0 Bft) NW 315 7,7 C 0,0 km/h (0 Bft)
20.09.2015 07:45 9,4 C 9,4 C 87 % 1022,7 hPa 0,0 mm 0,0 km/h (0 Bft) SW 225 7,3 C 0,0 km/h (0 Bft)
20.09.2015 07:50 9,4 C 9,4 C 87 % 1022,7 hPa 0,0 mm 0,0 km/h (0 Bft) W 270 7,3 C 0,0 km/h (0 Bft)
20.09.2015 07:55 9,5 C 9,5 C 87 % 1022,8 hPa 0,0 mm 0,0 km/h (0 Bft) S 180 7,4 C 0,0 km/h (0 Bft)
20.09.2015 08:00 9,5 C 9,6 C 87 % 1022,8 hPa 0,0 mm 0,3 km/h (0 Bft) W-SW 247 7,4 C 3,9 km/h (1 Bft)
20.09.2015 08:05 9,5 C 9,6 C 87 % 1022,8 hPa 0,0 mm 0,3 km/h (0 Bft) SW 225 7,4 C 0,0 km/h (0 Bft)
20.09.2015 08:10 9,6 C 9,7 C 87 % 1022,8 hPa 0,0 mm 0,5 km/h (0 Bft) W-SW 247 7,5 C 0,0 km/h (0 Bft)
20.09.2015 08:15 9,6 C 9,8 C 87 % 1022,8 hPa 0,0 mm 0,3 km/h (0 Bft) NW 315 7,5 C 2,8 km/h (1 Bft)
20.09.2015 08:20 9,7 C 9,9 C 87 % 1022,8 hPa 0,0 mm 0,5 km/h (0 Bft) W-NW 292 7,6 C 0,0 km/h (0 Bft)
20.09.2015 08:25 9,7 C 9,9 C 87 % 1022,8 hPa 0,0 mm 0,5 km/h (0 Bft) W-NW 292 7,6 C 0,0 km/h (0 Bft)
20.09.2015 08:30 9,8 C 10,0 C 87 % 1022,8 hPa 0,0 mm 0,3 km/h (0 Bft) NW 315 7,7 C 0,0 km/h (0 Bft)
20.09.2015 08:35 9,8 C 10,0 C 87 % 1022,8 hPa 0,0 mm 0,3 km/h (0 Bft) W-NW 292 7,7 C 0,0 km/h (0 Bft)
20.09.2015 08:40 9,9 C 10,3 C 87 % 1022,8 hPa 0,0 mm 0,3 km/h (0 Bft) W-SW 247 7,8 C 0,0 km/h (0 Bft)
20.09.2015 08:45 10,0 C 10,5 C 86 % 1022,8 hPa 0,0 mm 0,0 km/h (0 Bft) NW 315 7,8 C 0,0 km/h (0 Bft)
20.09.2015 08:50 10,1 C 10,8 C 86 % 1022,8 hPa 0,0 mm 0,5 km/h (0 Bft) W-SW 247 7,9 C 0,0 km/h (0 Bft)
20.09.2015 08:55 10,2 C 11,0 C 86 % 1022,8 hPa 0,0 mm 0,5 km/h (0 Bft) NW 315 8,0 C 0,0 km/h (0 Bft)
20.09.2015 09:00 10,3 C 11,2 C 86 % 1022,8 hPa 0,0 mm 1,3 km/h (1 Bft) W 270 8,1 C 3,9 km/h (1 Bft)
20.09.2015 09:05 10,4 C 11,3 C 86 % 1022,8 hPa 0,0 mm 1,6 km/h (1 Bft) NW 315 8,2 C 0,0 km/h (0 Bft)
20.09.2015 09:10 10,5 C 11,5 C 86 % 1022,8 hPa 0,0 mm 1,0 km/h (0 Bft) SW 225 8,3 C 0,0 km/h (0 Bft)
20.09.2015 09:15 10,5 C 11,6 C 86 % 1023,1 hPa 0,0 mm 0,8 km/h (0 Bft) N 360 8,3 C 3,1 km/h (1 Bft)
20.09.2015 09:20 10,6 C 11,6 C 86 % 1023,1 hPa 0,0 mm 1,8 km/h (1 Bft) W 270 8,4 C 0,0 km/h (0 Bft)
20.09.2015 09:25 10,6 C 11,7 C 86 % 1023,1 hPa 0,0 mm 2,3 km/h (1 Bft) W 270 8,4 C 0,0 km/h (0 Bft)
20.09.2015 09:30 10,7 C 11,8 C 86 % 1023,1 hPa 0,0 mm 2,6 km/h (1 Bft) N-NW 337 8,5 C 2,8 km/h (1 Bft)
20.09.2015 09:35 10,8 C 11,9 C 86 % 1023,1 hPa 0,0 mm 2,6 km/h (1 Bft) NW 315 8,6 C 4,9 km/h (1 Bft)
20.09.2015 09:40 10,7 C 11,9 C 85 % 1023,1 hPa 0,0 mm 4,1 km/h (1 Bft) W-NW 292 8,3 C 9,8 km/h (2 Bft)
20.09.2015 09:45 10,7 C 11,9 C 85 % 1023,1 hPa 0,0 mm 4,7 km/h (1 Bft) W-NW 292 8,3 C 3,6 km/h (1 Bft)
20.09.2015 09:50 10,8 C 12,1 C 85 % 1023,1 hPa 0,0 mm 3,6 km/h (1 Bft) NW 315 8,4 C 9,8 km/h (2 Bft)
20.09.2015 09:55 10,8 C 12,0 C 85 % 1023,2 hPa 0,0 mm 3,6 km/h (1 Bft) NW 315 8,4 C 3,6 km/h (1 Bft)
20.09.2015 10:00 10,7 C 11,9 C 85 % 1023,2 hPa 0,0 mm 3,9 km/h (1 Bft) W 270 8,3 C 4,1 km/h (1 Bft)
20.09.2015 10:05 10,7 C 11,8 C 84 % 1023,2 hPa 0,0 mm 4,9 km/h (1 Bft) N-NW 337 8,1 C 7,0 km/h (2 Bft)
20.09.2015 10:10 10,9 C 11,9 C 84 % 1023,2 hPa 0,0 mm 5,2 km/h (1 Bft) NW 315 8,3 C 3,9 km/h (1 Bft)
20.09.2015 10:15 10,9 C 12,1 C 84 % 1023,4 hPa 0,0 mm 4,4 km/h (1 Bft) W-NW 292 8,3 C 3,6 km/h (1 Bft)
20.09.2015 10:20 11,0 C 12,3 C 84 % 1023,4 hPa 0,0 mm 3,1 km/h (1 Bft) NW 315 8,4 C 3,4 km/h (1 Bft)
20.09.2015 10:25 11,0 C 12,3 C 84 % 1023,4 hPa 0,0 mm 3,1 km/h (1 Bft) NW 315 8,4 C 3,9 km/h (1 Bft)
20.09.2015 10:30 11,1 C 12,4 C 83 % 1023,4 hPa 0,0 mm 3,4 km/h (1 Bft) W-NW 292 8,3 C 2,8 km/h (1 Bft)
20.09.2015 10:35 11,1 C 12,5 C 83 % 1023,6 hPa 0,0 mm 3,4 km/h (1 Bft) NW 315 8,3 C 7,0 km/h (2 Bft)
20.09.2015 10:40 11,1 C 12,4 C 83 % 1023,6 hPa 0,0 mm 3,6 km/h (1 Bft) NW 315 8,3 C 6,7 km/h (2 Bft)
20.09.2015 10:45 11,1 C 12,3 C 83 % 1023,6 hPa 0,0 mm 4,9 km/h (1 Bft) NW 315 8,3 C 4,1 km/h (1 Bft)
20.09.2015 10:50 11,1 C 12,2 C 83 % 1023,6 hPa 0,0 mm 4,7 km/h (1 Bft) NW 315 8,3 C 4,9 km/h (1 Bft)
20.09.2015 10:55 11,1 C 12,2 C 83 % 1023,7 hPa 0,0 mm 3,4 km/h (1 Bft) NW 315 8,3 C 3,6 km/h (1 Bft)
20.09.2015 11:00 11,2 C 12,4 C 83 % 1023,7 hPa 0,0 mm 2,6 km/h (1 Bft) NW 315 8,4 C 3,4 km/h (1 Bft)
20.09.2015 11:05 11,3 C 12,5 C 82 % 1023,7 hPa 0,0 mm 3,1 km/h (1 Bft) N-NW 337 8,3 C 3,1 km/h (1 Bft)
20.09.2015 11:10 11,4 C 12,7 C 82 % 1023,7 hPa 0,0 mm 4,9 km/h (1 Bft) NW 315 8,4 C 9,1 km/h (2 Bft)
20.09.2015 11:15 11,5 C 12,9 C 82 % 1023,6 hPa 0,0 mm 5,7 km/h (1 Bft) NW 315 8,5 C 11,7 km/h (2 Bft)
20.09.2015 11:20 11,7 C 13,2 C 82 % 1023,6 hPa 0,0 mm 4,9 km/h (1 Bft) N-NW 337 8,7 C 0,0 km/h (0 Bft)
20.09.2015 11:25 11,9 C 13,5 C 82 % 1023,6 hPa 0,0 mm 4,4 km/h (1 Bft) N 360 8,9 C 7,5 km/h (2 Bft)
20.09.2015 11:30 11,8 C 13,5 C 81 % 1023,6 hPa 0,0 mm 4,1 km/h (1 Bft) NW 315 8,6 C 6,7 km/h (2 Bft)
20.09.2015 11:35 11,8 C 13,3 C 81 % 1023,7 hPa 0,0 mm 4,9 km/h (1 Bft) NW 315 8,6 C 7,3 km/h (2 Bft)
20.09.2015 11:40 11,8 C 13,4 C 81 % 1023,7 hPa 0,0 mm 3,9 km/h (1 Bft) W 270 8,6 C 0,0 km/h (0 Bft)
20.09.2015 11:45 12,0 C 14,1 C 81 % 1023,7 hPa 0,0 mm 2,8 km/h (1 Bft) W-NW 292 8,8 C 5,4 km/h (1 Bft)
20.09.2015 11:50 12,3 C 15,2 C 81 % 1023,7 hPa 0,0 mm 3,1 km/h (1 Bft) NW 315 9,1 C 4,9 km/h (1 Bft)
20.09.2015 11:55 12,4 C 15,8 C 80 % 1023,6 hPa 0,0 mm 4,4 km/h (1 Bft) NW 315 9,0 C 6,0 km/h (2 Bft)
20.09.2015 12:00 12,5 C 16,3 C 79 % 1023,6 hPa 0,0 mm 4,4 km/h (1 Bft) W-NW 292 9,0 C 13,2 km/h (3 Bft)
20.09.2015 12:05 12,8 C 16,8 C 79 % 1023,6 hPa 0,0 mm 3,9 km/h (1 Bft) W-SW 247 9,2 C 4,1 km/h (1 Bft)
20.09.2015 12:10 12,7 C 17,0 C 78 % 1023,6 hPa 0,0 mm 3,1 km/h (1 Bft) W 270 9,0 C 4,4 km/h (1 Bft)
20.09.2015 12:15 12,6 C 16,4 C 78 % 1023,7 hPa 0,0 mm 3,6 km/h (1 Bft) NW 315 8,9 C 5,4 km/h (1 Bft)
20.09.2015 12:20 12,4 C 15,0 C 78 % 1023,7 hPa 0,0 mm 7,3 km/h (2 Bft) NW 315 8,7 C 18,1 km/h (3 Bft)
20.09.2015 12:25 12,2 C 14,1 C 78 % 1023,7 hPa 0,0 mm 7,8 km/h (2 Bft) N-NW 337 8,5 C 5,4 km/h (1 Bft)
20.09.2015 12:30 11,9 C 13,2 C 78 % 1023,7 hPa 0,0 mm 6,2 km/h (2 Bft) NW 315 8,2 C 8,8 km/h (2 Bft)
20.09.2015 12:35 11,7 C 12,6 C 78 % 1023,7 hPa 0,0 mm 6,2 km/h (2 Bft) NW 315 8,0 C 8,8 km/h (2 Bft)
20.09.2015 12:40 11,5 C 12,1 C 78 % 1023,7 hPa 0,0 mm 6,5 km/h (2 Bft) NW 315 7,8 C 6,2 km/h (2 Bft)
20.09.2015 12:45 11,6 C 12,5 C 78 % 1023,7 hPa 0,0 mm 5,4 km/h (1 Bft) NW 315 7,9 C 3,1 km/h (1 Bft)
20.09.2015 12:50 12,2 C 13,7 C 78 % 1023,7 hPa 0,0 mm 3,6 km/h (1 Bft) S-SW 202 8,5 C 4,7 km/h (1 Bft)
20.09.2015 12:55 12,3 C 14,4 C 78 % 1023,5 hPa 0,0 mm 2,8 km/h (1 Bft) W 270 8,6 C 7,3 km/h (2 Bft)
20.09.2015 13:00 12,4 C 14,9 C 77 % 1023,5 hPa 0,0 mm 3,9 km/h (1 Bft) NW 315 8,5 C 5,2 km/h (1 Bft)
20.09.2015 13:05 12,7 C 15,4 C 77 % 1023,5 hPa 0,0 mm 3,6 km/h (1 Bft) N-NO 22 8,8 C 6,2 km/h (2 Bft)
20.09.2015 13:10 12,9 C 16,1 C 76 % 1023,5 hPa 0,0 mm 2,8 km/h (1 Bft) W 270 8,8 C 6,2 km/h (2 Bft)
20.09.2015 13:15 12,9 C 16,1 C 76 % 1023,4 hPa 0,0 mm 2,8 km/h (1 Bft) NW 315 8,8 C 5,4 km/h (1 Bft)
20.09.2015 13:20 12,8 C 15,9 C 76 % 1023,4 hPa 0,0 mm 2,8 km/h (1 Bft) N-NW 337 8,7 C 5,2 km/h (1 Bft)
20.09.2015 13:23 13,4 C 16,9 C 75 % 1023,4 hPa 0,0 mm 3,6 km/h (1 Bft) N-NW 337 9,1 C 7,8 km/h (2 Bft)
20.09.2015 13:25 13,4 C 16,9 C 75 % 1023,4 hPa 0,0 mm 3,6 km/h (1 Bft) N-NW 337 9,1 C 7,8 km/h (2 Bft)
20.09.2015 13:30 13,3 C 17,1 C 75 % 1023,4 hPa 0,0 mm 4,1 km/h (1 Bft) W 270 9,0 C 3,6 km/h (1 Bft)
20.09.2015 13:35 13,5 C 17,0 C 74 % 1023,4 hPa 0,0 mm 4,4 km/h (1 Bft) NW 315 9,0 C 7,0 km/h (2 Bft)
20.09.2015 13:40 13,3 C 17,0 C 74 % 1023,4 hPa 0,0 mm 3,9 km/h (1 Bft) N-NW 337 8,8 C 7,0 km/h (2 Bft)
20.09.2015 13:45 13,2 C 16,6 C 74 % 1023,4 hPa 0,0 mm 3,6 km/h (1 Bft) W-NW 292 8,7 C 8,3 km/h (2 Bft)
20.09.2015 13:50 12,9 C 16,1 C 75 % 1023,4 hPa 0,0 mm 3,6 km/h (1 Bft) W 270 8,6 C 4,4 km/h (1 Bft)
20.09.2015 13:55 12,9 C 15,8 C 75 % 1023,6 hPa 0,0 mm 3,6 km/h (1 Bft) W 270 8,6 C 3,9 km/h (1 Bft)
20.09.2015 14:00 12,9 C 15,3 C 75 % 1023,6 hPa 0,0 mm 4,4 km/h (1 Bft) W 270 8,6 C 8,5 km/h (2 Bft)
20.09.2015 14:05 12,8 C 15,1 C 75 % 1023,6 hPa 0,0 mm 4,7 km/h (1 Bft) S-SW 202 8,5 C 4,7 km/h (1 Bft)
20.09.2015 14:10 12,7 C 15,0 C 75 % 1023,6 hPa 0,0 mm 4,1 km/h (1 Bft) NW 315 8,4 C 4,1 km/h (1 Bft)
20.09.2015 14:15 12,9 C 15,2 C 75 % 1023,6 hPa 0,0 mm 3,4 km/h (1 Bft) W-SW 247 8,6 C 5,4 km/h (1 Bft)
20.09.2015 14:20 13,2 C 15,8 C 74 % 1023,6 hPa 0,0 mm 2,6 km/h (1 Bft) W-SW 247 8,7 C 0,0 km/h (0 Bft)
20.09.2015 14:25 13,4 C 16,2 C 74 % 1023,6 hPa 0,0 mm 2,3 km/h (1 Bft) W-SW 247 8,9 C 4,9 km/h (1 Bft)
20.09.2015 14:30 13,3 C 16,5 C 73 % 1023,6 hPa 0,0 mm 3,1 km/h (1 Bft) N-NW 337 8,6 C 3,6 km/h (1 Bft)
20.09.2015 14:35 13,6 C 16,8 C 72 % 1023,4 hPa 0,0 mm 3,1 km/h (1 Bft) SW 225 8,6 C 3,6 km/h (1 Bft)
20.09.2015 14:40 14,0 C 17,9 C 71 % 1023,4 hPa 0,0 mm 4,1 km/h (1 Bft) W 270 8,8 C 13,2 km/h (3 Bft)
20.09.2015 14:45 14,1 C 18,3 C 70 % 1023,4 hPa 0,0 mm 5,2 km/h (1 Bft) W 270 8,7 C 6,7 km/h (2 Bft)
20.09.2015 14:50 13,9 C 18,2 C 69 % 1023,4 hPa 0,0 mm 4,7 km/h (1 Bft) SW 225 8,3 C 7,0 km/h (2 Bft)
20.09.2015 14:55 13,9 C 18,4 C 69 % 1023,2 hPa 0,0 mm 3,6 km/h (1 Bft) NO 45 8,3 C 0,0 km/h (0 Bft)
20.09.2015 15:00 14,3 C 19,7 C 69 % 1023,2 hPa 0,0 mm 2,8 km/h (1 Bft) SW 225 8,7 C 0,0 km/h (0 Bft)
20.09.2015 15:05 14,3 C 19,2 C 68 % 1023,2 hPa 0,0 mm 2,3 km/h (1 Bft) W 270 8,5 C 0,0 km/h (0 Bft)
20.09.2015 15:10 14,0 C 18,0 C 68 % 1023,2 hPa 0,0 mm 2,8 km/h (1 Bft) W 270 8,2 C 6,0 km/h (2 Bft)
20.09.2015 15:15 13,9 C 17,4 C 69 % 1023,1 hPa 0,0 mm 4,1 km/h (1 Bft) W 270 8,3 C 8,0 km/h (2 Bft)
20.09.2015 15:20 14,5 C 17,8 C 68 % 1023,1 hPa 0,0 mm 5,7 km/h (1 Bft) W-SW 247 8,7 C 7,3 km/h (2 Bft)
20.09.2015 15:25 14,5 C 18,2 C 66 % 1023,1 hPa 0,0 mm 5,4 km/h (1 Bft) S-SW 202 8,2 C 4,9 km/h (1 Bft)
20.09.2015 15:30 14,9 C 19,0 C 66 % 1023,1 hPa 0,0 mm 4,9 km/h (1 Bft) W-SW 247 8,6 C 7,3 km/h (2 Bft)
20.09.2015 15:35 15,4 C 19,8 C 66 % 1022,8 hPa 0,0 mm 5,7 km/h (1 Bft) W 270 9,1 C 10,1 km/h (2 Bft)
20.09.2015 15:40 14,7 C 18,8 C 65 % 1022,8 hPa 0,0 mm 5,4 km/h (1 Bft) NW 315 8,2 C 19,2 km/h (3 Bft)
20.09.2015 15:45 14,3 C 17,6 C 65 % 1022,8 hPa 0,0 mm 5,7 km/h (1 Bft) NW 315 7,8 C 6,0 km/h (2 Bft)
20.09.2015 15:50 14,6 C 17,5 C 66 % 1022,8 hPa 0,0 mm 4,7 km/h (1 Bft) W 270 8,3 C 6,5 km/h (2 Bft)
20.09.2015 15:55 14,4 C 17,0 C 66 % 1022,8 hPa 0,0 mm 4,7 km/h (1 Bft) W-NW 292 8,1 C 2,6 km/h (1 Bft)
20.09.2015 16:00 14,0 C 16,1 C 66 % 1022,8 hPa 0,0 mm 3,1 km/h (1 Bft) SW 225 7,7 C 0,0 km/h (0 Bft)
20.09.2015 16:05 13,8 C 15,4 C 67 % 1022,8 hPa 0,0 mm 2,1 km/h (1 Bft) NW 315 7,8 C 7,3 km/h (2 Bft)
20.09.2015 16:10 13,4 C 14,5 C 67 % 1022,8 hPa 0,0 mm 2,6 km/h (1 Bft) W 270 7,4 C 9,6 km/h (2 Bft)
20.09.2015 16:15 13,1 C 13,9 C 67 % 1022,8 hPa 0,0 mm 3,4 km/h (1 Bft) NW 315 7,1 C 2,8 km/h (1 Bft)
20.09.2015 16:20 13,0 C 13,3 C 68 % 1022,8 hPa 0,0 mm 2,8 km/h (1 Bft) NW 315 7,2 C 0,0 km/h (0 Bft)
20.09.2015 16:25 12,9 C 13,2 C 69 % 1022,8 hPa 0,0 mm 1,0 km/h (0 Bft) W 270 7,4 C 0,0 km/h (0 Bft)
20.09.2015 16:30 12,8 C 13,1 C 69 % 1022,8 hPa 0,0 mm 0,3 km/h (0 Bft) W-NW 292 7,3 C 0,0 km/h (0 Bft)
20.09.2015 16:35 12,8 C 13,1 C 70 % 1022,7 hPa 0,0 mm 0,0 km/h (0 Bft) W 270 7,5 C 0,0 km/h (0 Bft)
20.09.2015 16:40 12,7 C 13,1 C 71 % 1022,7 hPa 0,0 mm 0,0 km/h (0 Bft) W-SW 247 7,6 C 0,0 km/h (0 Bft)
20.09.2015 16:45 12,8 C 13,2 C 71 % 1022,7 hPa 0,0 mm 0,0 km/h (0 Bft) W 270 7,7 C 0,0 km/h (0 Bft)
20.09.2015 16:50 12,8 C 13,3 C 72 % 1022,7 hPa 0,0 mm 0,3 km/h (0 Bft) W 270 7,9 C 0,0 km/h (0 Bft)
20.09.2015 16:55 12,8 C 13,4 C 72 % 1022,6 hPa 0,0 mm 0,5 km/h (0 Bft) W-SW 247 7,9 C 0,0 km/h (0 Bft)
20.09.2015 17:00 12,8 C 13,4 C 72 % 1022,6 hPa 0,0 mm 0,3 km/h (0 Bft) W-SW 247 7,9 C 0,0 km/h (0 Bft)
20.09.2015 17:05 12,8 C 13,3 C 73 % 1022,6 hPa 0,0 mm 0,0 km/h (0 Bft) NW 315 8,1 C 0,0 km/h (0 Bft)
20.09.2015 17:10 12,8 C 13,3 C 73 % 1022,6 hPa 0,0 mm 0,0 km/h (0 Bft) W 270 8,1 C 0,0 km/h (0 Bft)
20.09.2015 17:15 12,6 C 13,1 C 73 % 1022,6 hPa 0,0 mm 0,0 km/h (0 Bft) W-SW 247 7,9 C 0,0 km/h (0 Bft)
20.09.2015 17:20 12,5 C 13,0 C 73 % 1022,6 hPa 0,0 mm 0,0 km/h (0 Bft) W-NW 292 7,8 C 0,0 km/h (0 Bft)
20.09.2015 17:25 12,5 C 13,0 C 73 % 1022,6 hPa 0,0 mm 0,0 km/h (0 Bft) NW 315 7,8 C 0,0 km/h (0 Bft)
20.09.2015 17:30 12,6 C 13,1 C 73 % 1022,6 hPa 0,0 mm 0,0 km/h (0 Bft) W-SW 247 7,9 C 0,0 km/h (0 Bft)
20.09.2015 17:35 12,7 C 13,3 C 74 % 1022,5 hPa 0,0 mm 0,0 km/h (0 Bft) W 270 8,2 C 0,0 km/h (0 Bft)
20.09.2015 17:40 12,7 C 13,4 C 73 % 1022,5 hPa 0,0 mm 0,0 km/h (0 Bft) W-SW 247 8,0 C 0,0 km/h (0 Bft)
20.09.2015 17:45 12,8 C 13,5 C 74 % 1022,5 hPa 0,0 mm 0,0 km/h (0 Bft) W-SW 247 8,3 C 0,0 km/h (0 Bft)
20.09.2015 17:50 12,7 C 13,5 C 73 % 1022,5 hPa 0,0 mm 0,5 km/h (0 Bft) W-NW 292 8,0 C 0,0 km/h (0 Bft)
20.09.2015 17:55 12,7 C 13,3 C 73 % 1022,6 hPa 0,0 mm 1,0 km/h (0 Bft) NW 315 8,0 C 0,0 km/h (0 Bft)
20.09.2015 18:00 12,7 C 13,1 C 74 % 1022,6 hPa 0,0 mm 0,8 km/h (0 Bft) NW 315 8,2 C 0,0 km/h (0 Bft)
20.09.2015 18:05 12,6 C 13,0 C 74 % 1022,6 hPa 0,0 mm 0,0 km/h (0 Bft) NW 315 8,1 C 0,0 km/h (0 Bft)
20.09.2015 18:10 12,5 C 12,8 C 74 % 1022,6 hPa 0,0 mm 0,0 km/h (0 Bft) NW 315 8,0 C 0,0 km/h (0 Bft)
20.09.2015 18:15 12,5 C 12,7 C 74 % 1022,7 hPa 0,0 mm 0,0 km/h (0 Bft) NW 315 8,0 C 0,0 km/h (0 Bft)
20.09.2015 18:20 12,3 C 12,4 C 73 % 1022,7 hPa 0,0 mm 0,5 km/h (0 Bft) N-NW 337 7,6 C 0,0 km/h (0 Bft)
20.09.2015 18:25 12,2 C 12,2 C 74 % 1022,7 hPa 0,0 mm 0,5 km/h (0 Bft) N-NW 337 7,7 C 0,0 km/h (0 Bft)
20.09.2015 18:30 12,1 C 12,1 C 74 % 1022,7 hPa 0,0 mm 0,0 km/h (0 Bft) NW 315 7,6 C 3,1 km/h (1 Bft)
20.09.2015 18:35 12,0 C 12,0 C 74 % 1022,4 hPa 0,0 mm 0,0 km/h (0 Bft) NW 315 7,5 C 0,0 km/h (0 Bft)
20.09.2015 18:40 11,9 C 11,9 C 75 % 1022,4 hPa 0,0 mm 0,3 km/h (0 Bft) W-NW 292 7,6 C 0,0 km/h (0 Bft)
20.09.2015 18:45 11,9 C 11,8 C 75 % 1022,4 hPa 0,0 mm 0,3 km/h (0 Bft) W-NW 292 7,6 C 4,7 km/h (1 Bft)
20.09.2015 18:50 11,8 C 11,7 C 75 % 1022,4 hPa 0,0 mm 0,5 km/h (0 Bft) N-NW 337 7,5 C 0,0 km/h (0 Bft)
20.09.2015 18:55 11,7 C 11,6 C 76 % 1022,6 hPa 0,0 mm 0,5 km/h (0 Bft) N-NW 337 7,6 C 0,0 km/h (0 Bft)
20.09.2015 19:00 11,6 C 11,5 C 76 % 1022,6 hPa 0,0 mm 0,0 km/h (0 Bft) N-NW 337 7,5 C 0,0 km/h (0 Bft)
20.09.2015 19:05 11,5 C 11,4 C 76 % 1022,6 hPa 0,0 mm 0,0 km/h (0 Bft) N-NW 337 7,4 C 0,0 km/h (0 Bft)
20.09.2015 19:10 11,3 C 11,2 C 76 % 1022,6 hPa 0,0 mm 0,0 km/h (0 Bft) N-NW 337 7,2 C 0,0 km/h (0 Bft)
20.09.2015 19:15 11,2 C 11,2 C 76 % 1022,5 hPa 0,0 mm 0,0 km/h (0 Bft) N-NW 337 7,1 C 0,0 km/h (0 Bft)
20.09.2015 19:20 10,9 C 10,8 C 77 % 1022,5 hPa 0,0 mm 0,8 km/h (0 Bft) S-SO 157 7,0 C 3,1 km/h (1 Bft)
20.09.2015 19:24 10,7 C 10,6 C 78 % 1022,5 hPa 0,0 mm 1,3 km/h (1 Bft) S-SO 157 7,0 C 0,0 km/h (0 Bft)
20.09.2015 19:25 10,7 C 10,6 C 78 % 1022,5 hPa 0,0 mm 1,3 km/h (1 Bft) S-SO 157 7,0 C 0,0 km/h (0 Bft)
20.09.2015 19:30 10,5 C 10,4 C 78 % 1022,5 hPa 0,0 mm 1,3 km/h (1 Bft) S-SO 157 6,8 C 2,8 km/h (1 Bft)
20.09.2015 19:35 10,3 C 10,2 C 79 % 1022,4 hPa 0,0 mm 0,5 km/h (0 Bft) S-SO 157 6,8 C 0,0 km/h (0 Bft)
20.09.2015 19:40 10,2 C 10,1 C 79 % 1022,4 hPa 0,0 mm 0,8 km/h (0 Bft) S-SO 157 6,7 C 0,0 km/h (0 Bft)
20.09.2015 19:45 10,0 C 9,9 C 79 % 1022,4 hPa 0,0 mm 0,3 km/h (0 Bft) S-SO 157 6,5 C 0,0 km/h (0 Bft)
20.09.2015 19:50 10,0 C 9,8 C 80 % 1022,4 hPa 0,0 mm 0,0 km/h (0 Bft) S-SO 157 6,7 C 0,0 km/h (0 Bft)
20.09.2015 19:55 10,1 C 9,9 C 81 % 1022,6 hPa 0,0 mm 0,3 km/h (0 Bft) S-SO 157 7,0 C 0,0 km/h (0 Bft)
20.09.2015 20:00 10,2 C 10,0 C 81 % 1022,6 hPa 0,0 mm 1,3 km/h (1 Bft) S 180 7,1 C 4,1 km/h (1 Bft)
20.09.2015 20:05 10,1 C 10,0 C 82 % 1022,6 hPa 0,0 mm 1,3 km/h (1 Bft) S-SO 157 7,2 C 0,0 km/h (0 Bft)
20.09.2015 20:10 10,0 C 9,9 C 82 % 1022,6 hPa 0,0 mm 0,5 km/h (0 Bft) S-SO 157 7,1 C 0,0 km/h (0 Bft)
20.09.2015 20:15 10,0 C 9,9 C 82 % 1022,5 hPa 0,0 mm 0,0 km/h (0 Bft) S-SO 157 7,1 C 0,0 km/h (0 Bft)
20.09.2015 20:20 10,0 C 9,8 C 82 % 1022,5 hPa 0,0 mm 0,0 km/h (0 Bft) SO 135 7,1 C 0,0 km/h (0 Bft)
20.09.2015 20:25 9,9 C 9,7 C 83 % 1022,5 hPa 0,0 mm 0,0 km/h (0 Bft) SO 135 7,2 C 0,0 km/h (0 Bft)
20.09.2015 20:30 9,7 C 9,4 C 83 % 1022,5 hPa 0,0 mm 0,0 km/h (0 Bft) S-SO 157 7,0 C 0,0 km/h (0 Bft)
20.09.2015 20:35 9,7 C 9,4 C 84 % 1022,6 hPa 0,0 mm 0,3 km/h (0 Bft) S-SO 157 7,1 C 3,6 km/h (1 Bft)
20.09.2015 20:40 9,7 C 9,6 C 83 % 1022,6 hPa 0,0 mm 2,1 km/h (1 Bft) S 180 7,0 C 2,6 km/h (1 Bft)
20.09.2015 20:45 9,8 C 9,7 C 83 % 1022,6 hPa 0,0 mm 3,4 km/h (1 Bft) S-SO 157 7,1 C 6,0 km/h (2 Bft)
20.09.2015 20:50 9,8 C 9,8 C 83 % 1022,6 hPa 0,0 mm 2,3 km/h (1 Bft) S-SO 157 7,1 C 0,0 km/h (0 Bft)
20.09.2015 20:55 9,8 C 9,8 C 83 % 1022,4 hPa 0,0 mm 1,3 km/h (1 Bft) N-NO 22 7,1 C 0,0 km/h (0 Bft)
20.09.2015 21:00 9,6 C 9,5 C 84 % 1022,4 hPa 0,0 mm 0,0 km/h (0 Bft) S-SO 157 7,0 C 0,0 km/h (0 Bft)
20.09.2015 21:05 9,7 C 9,6 C 84 % 1022,4 hPa 0,0 mm 0,3 km/h (0 Bft) S-SO 157 7,1 C 0,0 km/h (0 Bft)
20.09.2015 21:10 9,4 C 9,3 C 84 % 1022,4 hPa 0,0 mm 0,3 km/h (0 Bft) O-SO 112 6,8 C 0,0 km/h (0 Bft)
20.09.2015 21:15 9,3 C 9,2 C 84 % 1022,4 hPa 0,0 mm 0,3 km/h (0 Bft) O-SO 112 6,7 C 0,0 km/h (0 Bft)
20.09.2015 21:20 9,3 C 9,1 C 85 % 1022,4 hPa 0,0 mm 0,0 km/h (0 Bft) S 180 6,9 C 0,0 km/h (0 Bft)
20.09.2015 21:25 9,1 C 9,0 C 85 % 1022,4 hPa 0,0 mm 0,0 km/h (0 Bft) S 180 6,7 C 0,0 km/h (0 Bft)
20.09.2015 21:30 9,2 C 9,0 C 85 % 1022,4 hPa 0,0 mm 0,0 km/h (0 Bft) S 180 6,8 C 0,0 km/h (0 Bft)
20.09.2015 21:35 9,3 C 9,1 C 85 % 1022,4 hPa 0,0 mm 0,0 km/h (0 Bft) S 180 6,9 C 0,0 km/h (0 Bft)
20.09.2015 21:40 9,4 C 9,2 C 86 % 1022,4 hPa 0,0 mm 0,0 km/h (0 Bft) SO 135 7,2 C 0,0 km/h (0 Bft)
20.09.2015 21:45 9,3 C 9,1 C 86 % 1022,4 hPa 0,0 mm 0,0 km/h (0 Bft) SW 225 7,1 C 0,0 km/h (0 Bft)
20.09.2015 21:50 9,2 C 9,0 C 86 % 1022,4 hPa 0,0 mm 0,0 km/h (0 Bft) S-SW 202 7,0 C 0,0 km/h (0 Bft)
20.09.2015 21:55 9,1 C 9,0 C 86 % 1022,5 hPa 0,0 mm 0,0 km/h (0 Bft) S-SW 202 6,9 C 0,0 km/h (0 Bft)
20.09.2015 22:00 9,2 C 9,0 C 86 % 1022,5 hPa 0,0 mm 0,0 km/h (0 Bft) S-SW 202 7,0 C 0,0 km/h (0 Bft)
20.09.2015 22:05 9,1 C 9,0 C 86 % 1022,5 hPa 0,0 mm 0,0 km/h (0 Bft) S-SW 202 6,9 C 0,0 km/h (0 Bft)
20.09.2015 22:10 9,1 C 9,0 C 86 % 1022,5 hPa 0,0 mm 0,0 km/h (0 Bft) SW 225 6,9 C 0,0 km/h (0 Bft)
20.09.2015 22:15 9,1 C 9,0 C 86 % 1022,6 hPa 0,0 mm 0,0 km/h (0 Bft) SW 225 6,9 C 0,0 km/h (0 Bft)
20.09.2015 22:20 9,2 C 9,0 C 86 % 1022,6 hPa 0,0 mm 0,0 km/h (0 Bft) SW 225 7,0 C 0,0 km/h (0 Bft)
20.09.2015 22:25 9,2 C 9,1 C 84 % 1022,6 hPa 0,0 mm 0,0 km/h (0 Bft) SW 225 6,6 C 0,0 km/h (0 Bft)
20.09.2015 22:30 9,3 C 9,2 C 85 % 1022,6 hPa 0,0 mm 0,0 km/h (0 Bft) SW 225 6,9 C 0,0 km/h (0 Bft)
20.09.2015 22:35 9,3 C 9,2 C 85 % 1022,4 hPa 0,0 mm 0,0 km/h (0 Bft) SW 225 6,9 C 0,0 km/h (0 Bft)
20.09.2015 22:40 9,3 C 9,3 C 85 % 1022,4 hPa 0,0 mm 0,0 km/h (0 Bft) SW 225 6,9 C 0,0 km/h (0 Bft)
20.09.2015 22:45 9,4 C 9,3 C 85 % 1022,4 hPa 0,0 mm 0,0 km/h (0 Bft) SO 135 7,0 C 0,0 km/h (0 Bft)
20.09.2015 22:50 9,4 C 9,3 C 85 % 1022,4 hPa 0,0 mm 0,0 km/h (0 Bft) S-SO 157 7,0 C 0,0 km/h (0 Bft)
20.09.2015 22:55 9,4 C 9,3 C 85 % 1022,4 hPa 0,0 mm 0,0 km/h (0 Bft) SW 225 7,0 C 0,0 km/h (0 Bft)
20.09.2015 23:00 9,5 C 9,4 C 87 % 1022,4 hPa 0,0 mm 0,0 km/h (0 Bft) SW 225 7,4 C 0,0 km/h (0 Bft)
20.09.2015 23:05 9,5 C 9,4 C 87 % 1022,4 hPa 0,0 mm 0,0 km/h (0 Bft) S-SW 202 7,4 C 0,0 km/h (0 Bft)
20.09.2015 23:10 9,5 C 9,4 C 87 % 1022,4 hPa 0,0 mm 0,0 km/h (0 Bft) S 180 7,4 C 0,0 km/h (0 Bft)
20.09.2015 23:15 9,5 C 9,4 C 87 % 1022,4 hPa 0,0 mm 0,0 km/h (0 Bft) NO 45 7,4 C 0,0 km/h (0 Bft)
20.09.2015 23:20 9,5 C 9,5 C 85 % 1022,4 hPa 0,0 mm 0,0 km/h (0 Bft) O 90 7,1 C 0,0 km/h (0 Bft)
20.09.2015 23:25 9,5 C 9,5 C 85 % 1022,4 hPa 0,0 mm 0,0 km/h (0 Bft) O-NO 67 7,1 C 0,0 km/h (0 Bft)
20.09.2015 23:30 9,5 C 9,5 C 85 % 1022,4 hPa 0,0 mm 0,0 km/h (0 Bft) O-NO 67 7,1 C 0,0 km/h (0 Bft)
20.09.2015 23:35 9,5 C 9,5 C 85 % 1022,2 hPa 0,0 mm 0,0 km/h (0 Bft) O-NO 67 7,1 C 0,0 km/h (0 Bft)
20.09.2015 23:40 9,5 C 9,5 C 85 % 1022,2 hPa 0,0 mm 0,0 km/h (0 Bft) O-NO 67 7,1 C 0,0 km/h (0 Bft)
20.09.2015 23:45 9,5 C 9,5 C 85 % 1022,2 hPa 0,0 mm 0,0 km/h (0 Bft) NO 45 7,1 C 0,0 km/h (0 Bft)
20.09.2015 23:50 9,5 C 9,5 C 85 % 1022,2 hPa 0,0 mm 0,0 km/h (0 Bft) NO 45 7,1 C 0,0 km/h (0 Bft)
20.09.2015 23:55 9,5 C 9,5 C 85 % 1022,0 hPa 0,0 mm 0,0 km/h (0 Bft) O-NO 67 7,1 C 0,0 km/h (0 Bft)
_ Min-Zeit 22:15 22:20 15:45 23:55 - 23:55 - - 19:45 23:55
Minimum _ 9,1 C 9,0 C 65 % 1022,0 hPa - 0,0 km/h (0 Bft) - - 6,5 C 0,0 km/h (0 Bft)
_ Max-Zeit 15:35 15:35 07:30 12:50 23:55 12:25 - - 12:05 15:40
Maximum _ 15,4 C 19,8 C 90 % 1023,7 hPa 0,0 mm 7,8 km/h
N-NW (2 Bft)
- - 9,2 C 19,2 km/h
NW (3 Bft)
Durchschnitt _ 10,8 C 11,5 C 82 % 1022,8 hPa #0,0 mm 1,6 km/h (1 Bft) NW - 7,9 C 2,2 km/h (1 Bft)